sensor_id;sensor_type;location;lat;lon;timestamp;pressure;altitude;pressure_sealevel;temperature;humidity
8051;BME280;4068;42.158;24.732;2024-02-14T00:01:14;99258.44;;;8.24;100.00
8051;BME280;4068;42.158;24.732;2024-02-14T00:03:42;99243.53;;;8.23;100.00
8051;BME280;4068;42.158;24.732;2024-02-14T00:06:08;99267.22;;;8.36;100.00
8051;BME280;4068;42.158;24.732;2024-02-14T00:08:33;99270.13;;;8.44;100.00
8051;BME280;4068;42.158;24.732;2024-02-14T00:10:59;99260.50;;;8.43;100.00
8051;BME280;4068;42.158;24.732;2024-02-14T00:13:25;99275.09;;;8.49;100.00
8051;BME280;4068;42.158;24.732;2024-02-14T00:15:51;99277.75;;;8.49;100.00
8051;BME280;4068;42.158;24.732;2024-02-14T00:18:16;99275.41;;;8.44;100.00
8051;BME280;4068;42.158;24.732;2024-02-14T00:20:42;99277.19;;;8.43;100.00
8051;BME280;4068;42.158;24.732;2024-02-14T00:23:07;99280.50;;;8.47;100.00
8051;BME280;4068;42.158;24.732;2024-02-14T00:25:33;99226.66;;;8.01;100.00
8051;BME280;4068;42.158;24.732;2024-02-14T00:27:58;99279.84;;;8.43;100.00
8051;BME280;4068;42.158;24.732;2024-02-14T00:30:26;99295.28;;;8.50;100.00
8051;BME280;4068;42.158;24.732;2024-02-14T00:32:52;99283.53;;;8.54;100.00
8051;BME280;4068;42.158;24.732;2024-02-14T00:35:17;99302.50;;;8.59;100.00
8051;BME280;4068;42.158;24.732;2024-02-14T00:37:42;99289.41;;;8.57;100.00
8051;BME280;4068;42.158;24.732;2024-02-14T00:40:08;99282.69;;;8.64;100.00
8051;BME280;4068;42.158;24.732;2024-02-14T00:42:34;99298.69;;;8.74;100.00
8051;BME280;4068;42.158;24.732;2024-02-14T00:45:00;99267.56;;;8.55;100.00
8051;BME280;4068;42.158;24.732;2024-02-14T00:47:25;99295.34;;;8.72;100.00
8051;BME280;4068;42.158;24.732;2024-02-14T00:49:50;99294.34;;;8.73;100.00
8051;BME280;4068;42.158;24.732;2024-02-14T00:52:17;99279.34;;;8.62;100.00
8051;BME280;4068;42.158;24.732;2024-02-14T00:54:43;99298.69;;;8.74;100.00
8051;BME280;4068;42.158;24.732;2024-02-14T00:57:08;99288.13;;;8.74;100.00
8051;BME280;4068;42.158;24.732;2024-02-14T00:59:34;99293.88;;;8.68;100.00
8051;BME280;4068;42.158;24.732;2024-02-14T01:01:59;99271.50;;;8.50;100.00
8051;BME280;4068;42.158;24.732;2024-02-14T01:04:25;99296.84;;;8.63;100.00
8051;BME280;4068;42.158;24.732;2024-02-14T01:06:50;99280.97;;;8.52;100.00
8051;BME280;4068;42.158;24.732;2024-02-14T01:09:18;99298.06;;;8.59;100.00
8051;BME280;4068;42.158;24.732;2024-02-14T01:11:44;99295.75;;;8.55;100.00
8051;BME280;4068;42.158;24.732;2024-02-14T01:14:10;99296.69;;;8.42;100.00
8051;BME280;4068;42.158;24.732;2024-02-14T01:16:46;99296.25;;;8.49;100.00
8051;BME280;4068;42.158;24.732;2024-02-14T01:19:13;99298.16;;;8.46;100.00
8051;BME280;4068;42.158;24.732;2024-02-14T01:21:38;99303.94;;;8.52;100.00
8051;BME280;4068;42.158;24.732;2024-02-14T01:24:04;99285.38;;;8.40;100.00
8051;BME280;4068;42.158;24.732;2024-02-14T01:26:34;99292.88;;;8.46;100.00
8051;BME280;4068;42.158;24.732;2024-02-14T01:28:59;99301.41;;;8.50;100.00
8051;BME280;4068;42.158;24.732;2024-02-14T01:31:27;99303.34;;;8.48;100.00
8051;BME280;4068;42.158;24.732;2024-02-14T01:33:53;99294.53;;;8.48;100.00
8051;BME280;4068;42.158;24.732;2024-02-14T01:36:19;99305.63;;;8.53;100.00
8051;BME280;4068;42.158;24.732;2024-02-14T01:38:44;99311.97;;;8.50;100.00
8051;BME280;4068;42.158;24.732;2024-02-14T01:41:10;99307.41;;;8.52;100.00
8051;BME280;4068;42.158;24.732;2024-02-14T01:43:36;99286.72;;;8.46;100.00
8051;BME280;4068;42.158;24.732;2024-02-14T01:46:05;99304.16;;;8.49;100.00
8051;BME280;4068;42.158;24.732;2024-02-14T01:48:31;99296.25;;;8.49;100.00
8051;BME280;4068;42.158;24.732;2024-02-14T01:50:57;99303.94;;;8.52;100.00
8051;BME280;4068;42.158;24.732;2024-02-14T01:53:25;99309.34;;;8.50;100.00
8051;BME280;4068;42.158;24.732;2024-02-14T01:55:51;99305.00;;;8.49;100.00
8051;BME280;4068;42.158;24.732;2024-02-14T01:58:17;99303.22;;;8.50;100.00
8051;BME280;4068;42.158;24.732;2024-02-14T02:00:43;99280.44;;;8.36;100.00
8051;BME280;4068;42.158;24.732;2024-02-14T02:03:09;99313.78;;;8.50;100.00
8051;BME280;4068;42.158;24.732;2024-02-14T02:05:35;99325.81;;;8.54;100.00
8051;BME280;4068;42.158;24.732;2024-02-14T02:08:01;99311.56;;;8.43;100.00
8051;BME280;4068;42.158;24.732;2024-02-14T02:10:27;99323.16;;;8.54;100.00
8051;BME280;4068;42.158;24.732;2024-02-14T02:12:59;99330.97;;;8.55;100.00
8051;BME280;4068;42.158;24.732;2024-02-14T02:15:25;99339.38;;;8.60;100.00
8051;BME280;4068;42.158;24.732;2024-02-14T02:17:52;99335.69;;;8.63;100.00
8051;BME280;4068;42.158;24.732;2024-02-14T02:20:18;99343.38;;;8.66;100.00
8051;BME280;4068;42.158;24.732;2024-02-14T02:22:46;99342.41;;;8.67;100.00
8051;BME280;4068;42.158;24.732;2024-02-14T02:25:12;99338.94;;;8.67;100.00
8051;BME280;4068;42.158;24.732;2024-02-14T02:27:38;99340.72;;;8.66;100.00
8051;BME280;4068;42.158;24.732;2024-02-14T02:30:07;99345.69;;;8.71;100.00
8051;BME280;4068;42.158;24.732;2024-02-14T02:32:36;99350.47;;;8.66;100.00
8051;BME280;4068;42.158;24.732;2024-02-14T02:35:02;99352.03;;;8.68;100.00
8051;BME280;4068;42.158;24.732;2024-02-14T02:37:28;99320.03;;;8.49;100.00
8051;BME280;4068;42.158;24.732;2024-02-14T02:39:58;99355.41;;;8.70;100.00
8051;BME280;4068;42.158;24.732;2024-02-14T02:42:23;99355.28;;;8.72;100.00
8051;BME280;4068;42.158;24.732;2024-02-14T02:44:50;99358.16;;;8.69;100.00
8051;BME280;4068;42.158;24.732;2024-02-14T02:47:16;99358.75;;;8.61;100.00
8051;BME280;4068;42.158;24.732;2024-02-14T02:49:43;99326.50;;;8.44;100.00
8051;BME280;4068;42.158;24.732;2024-02-14T02:52:12;99363.28;;;8.59;100.00
8051;BME280;4068;42.158;24.732;2024-02-14T02:54:38;99358.25;;;8.56;100.00
8051;BME280;4068;42.158;24.732;2024-02-14T02:57:11;99356.78;;;8.52;100.00
8051;BME280;4068;42.158;24.732;2024-02-14T02:59:37;99372.81;;;8.61;100.00
8051;BME280;4068;42.158;24.732;2024-02-14T03:02:03;99369.81;;;8.66;100.00
8051;BME280;4068;42.158;24.732;2024-02-14T03:04:29;99347.91;;;8.53;100.00
8051;BME280;4068;42.158;24.732;2024-02-14T03:06:57;99381.94;;;8.69;100.00
8051;BME280;4068;42.158;24.732;2024-02-14T03:09:22;99388.19;;;8.68;100.00
8051;BME280;4068;42.158;24.732;2024-02-14T03:11:48;99389.66;;;8.72;100.00
8051;BME280;4068;42.158;24.732;2024-02-14T03:14:14;99390.84;;;8.68;100.00
8051;BME280;4068;42.158;24.732;2024-02-14T03:16:40;99400.75;;;8.77;100.00
8051;BME280;4068;42.158;24.732;2024-02-14T03:19:05;99400.09;;;8.73;100.00
8051;BME280;4068;42.158;24.732;2024-02-14T03:21:31;99403.72;;;8.72;100.00
8051;BME280;4068;42.158;24.732;2024-02-14T03:24:01;99405.41;;;8.73;100.00
8051;BME280;4068;42.158;24.732;2024-02-14T03:26:30;99416.09;;;8.72;100.00
8051;BME280;4068;42.158;24.732;2024-02-14T03:28:59;99411.28;;;8.66;100.00
8051;BME280;4068;42.158;24.732;2024-02-14T03:31:25;99388.91;;;8.58;100.00
8051;BME280;4068;42.158;24.732;2024-02-14T03:33:51;99413.31;;;8.73;100.00
8051;BME280;4068;42.158;24.732;2024-02-14T03:36:17;99408.78;;;8.75;100.00
8051;BME280;4068;42.158;24.732;2024-02-14T03:38:43;99415.75;;;8.76;100.00
8051;BME280;4068;42.158;24.732;2024-02-14T03:41:09;99417.72;;;8.86;100.00
8051;BME280;4068;42.158;24.732;2024-02-14T03:43:34;99414.47;;;8.93;100.00
8051;BME280;4068;42.158;24.732;2024-02-14T03:46:00;99418.44;;;8.99;100.00
8051;BME280;4068;42.158;24.732;2024-02-14T03:48:25;99420.50;;;8.95;100.00
8051;BME280;4068;42.158;24.732;2024-02-14T03:50:51;99433.50;;;8.98;100.00
8051;BME280;4068;42.158;24.732;2024-02-14T03:53:16;99399.66;;;8.79;100.00
8051;BME280;4068;42.158;24.732;2024-02-14T03:55:42;99429.59;;;8.80;100.00
8051;BME280;4068;42.158;24.732;2024-02-14T03:58:08;99438.38;;;8.92;100.00
8051;BME280;4068;42.158;24.732;2024-02-14T04:00:34;99422.16;;;8.85;100.00
8051;BME280;4068;42.158;24.732;2024-02-14T04:03:01;99434.91;;;8.91;100.00
8051;BME280;4068;42.158;24.732;2024-02-14T04:05:28;99441.81;;;9.05;100.00
8051;BME280;4068;42.158;24.732;2024-02-14T04:07:54;99424.09;;;8.94;100.00
8051;BME280;4068;42.158;24.732;2024-02-14T04:10:21;99457.09;;;9.13;100.00
8051;BME280;4068;42.158;24.732;2024-02-14T04:12:47;99455.28;;;9.02;100.00
8051;BME280;4068;42.158;24.732;2024-02-14T04:15:12;99460.19;;;8.95;100.00
8051;BME280;4068;42.158;24.732;2024-02-14T04:17:39;99456.66;;;8.95;100.00
8051;BME280;4068;42.158;24.732;2024-02-14T04:20:05;99447.31;;;8.91;100.00
8051;BME280;4068;42.158;24.732;2024-02-14T04:22:31;99459.38;;;8.82;100.00
8051;BME280;4068;42.158;24.732;2024-02-14T04:24:56;99445.06;;;8.73;100.00
8051;BME280;4068;42.158;24.732;2024-02-14T04:27:22;99463.84;;;8.81;100.00
8051;BME280;4068;42.158;24.732;2024-02-14T04:29:48;99447.34;;;8.67;100.00
8051;BME280;4068;42.158;24.732;2024-02-14T04:32:14;99461.66;;;8.75;100.00
8051;BME280;4068;42.158;24.732;2024-02-14T04:34:39;99462.84;;;8.71;100.00
8051;BME280;4068;42.158;24.732;2024-02-14T04:37:06;99466.16;;;8.62;100.00
8051;BME280;4068;42.158;24.732;2024-02-14T04:39:43;99471.31;;;8.63;100.00
8051;BME280;4068;42.158;24.732;2024-02-14T04:42:09;99474.84;;;8.64;100.00
8051;BME280;4068;42.158;24.732;2024-02-14T04:44:35;99444.56;;;8.44;100.00
8051;BME280;4068;42.158;24.732;2024-02-14T04:47:00;99474.09;;;8.62;100.00
8051;BME280;4068;42.158;24.732;2024-02-14T04:49:27;99465.03;;;8.53;100.00
8051;BME280;4068;42.158;24.732;2024-02-14T04:51:54;99469.25;;;8.56;100.00
8051;BME280;4068;42.158;24.732;2024-02-14T04:54:20;99475.59;;;8.53;100.00
8051;BME280;4068;42.158;24.732;2024-02-14T04:56:46;99478.13;;;8.55;100.00
8051;BME280;4068;42.158;24.732;2024-02-14T04:59:12;99476.19;;;8.45;100.00
8051;BME280;4068;42.158;24.732;2024-02-14T05:01:38;99460.00;;;8.37;100.00
8051;BME280;4068;42.158;24.732;2024-02-14T05:04:05;99475.72;;;8.52;100.00
8051;BME280;4068;42.158;24.732;2024-02-14T05:06:32;99479.03;;;8.42;100.00
8051;BME280;4068;42.158;24.732;2024-02-14T05:08:58;99479.66;;;8.46;100.00
8051;BME280;4068;42.158;24.732;2024-02-14T05:11:23;99488.81;;;8.53;100.00
8051;BME280;4068;42.158;24.732;2024-02-14T05:13:49;99456.94;;;8.30;100.00
8051;BME280;4068;42.158;24.732;2024-02-14T05:16:20;99503.09;;;8.51;100.00
8051;BME280;4068;42.158;24.732;2024-02-14T05:18:46;99469.44;;;8.28;100.00
8051;BME280;4068;42.158;24.732;2024-02-14T05:21:12;99492.34;;;8.41;100.00
8051;BME280;4068;42.158;24.732;2024-02-14T05:23:37;99505.75;;;8.51;100.00
8051;BME280;4068;42.158;24.732;2024-02-14T05:26:03;99513.38;;;8.55;100.00
8051;BME280;4068;42.158;24.732;2024-02-14T05:28:29;99507.63;;;8.61;100.00
8051;BME280;4068;42.158;24.732;2024-02-14T05:30:59;99513.31;;;8.68;100.00
8051;BME280;4068;42.158;24.732;2024-02-14T05:33:24;99510.91;;;8.65;100.00
8051;BME280;4068;42.158;24.732;2024-02-14T05:35:50;99508.03;;;8.68;100.00
8051;BME280;4068;42.158;24.732;2024-02-14T05:38:16;99512.56;;;8.66;100.00
8051;BME280;4068;42.158;24.732;2024-02-14T05:40:45;99512.84;;;8.74;100.00
8051;BME280;4068;42.158;24.732;2024-02-14T05:43:11;99536.13;;;8.93;100.00
8051;BME280;4068;42.158;24.732;2024-02-14T05:45:36;99531.34;;;8.98;100.00
8051;BME280;4068;42.158;24.732;2024-02-14T05:48:02;99534.41;;;9.05;100.00
8051;BME280;4068;42.158;24.732;2024-02-14T05:50:28;99513.91;;;8.96;100.00
8051;BME280;4068;42.158;24.732;2024-02-14T05:52:54;99552.38;;;9.24;99.52
8051;BME280;4068;42.158;24.732;2024-02-14T05:55:19;99545.38;;;9.23;98.90
8051;BME280;4068;42.158;24.732;2024-02-14T05:57:45;99551.81;;;9.32;99.10
8051;BME280;4068;42.158;24.732;2024-02-14T06:00:11;99531.22;;;9.24;98.57
8051;BME280;4068;42.158;24.732;2024-02-14T06:02:38;99563.41;;;9.42;97.38
8051;BME280;4068;42.158;24.732;2024-02-14T06:05:06;99562.41;;;9.43;97.75
8051;BME280;4068;42.158;24.732;2024-02-14T06:07:37;99533.63;;;9.27;97.18
8051;BME280;4068;42.158;24.732;2024-02-14T06:10:03;99574.50;;;9.59;97.59
8051;BME280;4068;42.158;24.732;2024-02-14T06:12:28;99573.44;;;9.61;95.48
8051;BME280;4068;42.158;24.732;2024-02-14T06:14:55;99565.47;;;9.61;95.58
8051;BME280;4068;42.158;24.732;2024-02-14T06:17:21;99586.56;;;9.74;94.94
8051;BME280;4068;42.158;24.732;2024-02-14T06:19:46;99587.06;;;9.79;94.51
8051;BME280;4068;42.158;24.732;2024-02-14T06:22:12;99579.28;;;9.89;93.96
8051;BME280;4068;42.158;24.732;2024-02-14T06:24:37;99583.25;;;9.95;92.99
8051;BME280;4068;42.158;24.732;2024-02-14T06:27:03;99590.97;;;9.98;92.74
8051;BME280;4068;42.158;24.732;2024-02-14T06:29:29;99591.81;;;10.10;91.77
8051;BME280;4068;42.158;24.732;2024-02-14T06:31:54;99592.19;;;10.16;91.07
8051;BME280;4068;42.158;24.732;2024-02-14T06:34:20;99587.47;;;10.20;91.17
8051;BME280;4068;42.158;24.732;2024-02-14T06:36:48;99596.03;;;10.24;90.92
8051;BME280;4068;42.158;24.732;2024-02-14T06:39:13;99599.31;;;10.39;89.66
8051;BME280;4068;42.158;24.732;2024-02-14T06:41:39;99592.69;;;10.44;87.67
8051;BME280;4068;42.158;24.732;2024-02-14T06:44:05;99603.53;;;10.52;86.94
8051;BME280;4068;42.158;24.732;2024-02-14T06:46:31;99605.34;;;10.52;87.49
8051;BME280;4068;42.158;24.732;2024-02-14T06:48:57;99600.63;;;10.56;87.66
8051;BME280;4068;42.158;24.732;2024-02-14T06:51:23;99606.56;;;10.48;86.23
8051;BME280;4068;42.158;24.732;2024-02-14T06:53:49;99617.88;;;10.50;86.59
8051;BME280;4068;42.158;24.732;2024-02-14T06:56:15;99612.31;;;10.53;86.91
8051;BME280;4068;42.158;24.732;2024-02-14T06:58:41;99619.19;;;10.56;86.55
8051;BME280;4068;42.158;24.732;2024-02-14T07:01:06;99619.94;;;10.58;85.71
8051;BME280;4068;42.158;24.732;2024-02-14T07:03:32;99630.66;;;10.56;84.67
8051;BME280;4068;42.158;24.732;2024-02-14T07:05:58;99629.69;;;10.46;85.72
8051;BME280;4068;42.158;24.732;2024-02-14T07:08:23;99629.56;;;10.47;85.34
8051;BME280;4068;42.158;24.732;2024-02-14T07:10:51;99612.56;;;10.39;85.60
8051;BME280;4068;42.158;24.732;2024-02-14T07:13:16;99631.50;;;10.57;85.53
8051;BME280;4068;42.158;24.732;2024-02-14T07:15:42;99638.00;;;10.64;84.18
8051;BME280;4068;42.158;24.732;2024-02-14T07:18:08;99644.13;;;10.76;84.97
8051;BME280;4068;42.158;24.732;2024-02-14T07:20:35;99648.72;;;10.85;83.08
8051;BME280;4068;42.158;24.732;2024-02-14T07:23:00;99625.09;;;10.70;81.11
8051;BME280;4068;42.158;24.732;2024-02-14T07:25:26;99641.97;;;10.81;81.93
8051;BME280;4068;42.158;24.732;2024-02-14T07:27:52;99653.00;;;10.97;81.44
8051;BME280;4068;42.158;24.732;2024-02-14T07:30:18;99656.16;;;11.02;81.15
8051;BME280;4068;42.158;24.732;2024-02-14T07:32:44;99660.63;;;11.02;80.79
8051;BME280;4068;42.158;24.732;2024-02-14T07:35:09;99667.38;;;11.06;80.95
8051;BME280;4068;42.158;24.732;2024-02-14T07:37:36;99669.28;;;11.15;79.82
8051;BME280;4068;42.158;24.732;2024-02-14T07:40:02;99671.94;;;11.15;79.62
8051;BME280;4068;42.158;24.732;2024-02-14T07:42:28;99684.25;;;11.05;79.91
8051;BME280;4068;42.158;24.732;2024-02-14T07:44:53;99684.28;;;10.94;80.71
8051;BME280;4068;42.158;24.732;2024-02-14T07:47:21;99691.97;;;10.97;80.99
8051;BME280;4068;42.158;24.732;2024-02-14T07:49:47;99689.84;;;10.68;81.09
8051;BME280;4068;42.158;24.732;2024-02-14T07:52:12;99686.22;;;10.80;81.30
8051;BME280;4068;42.158;24.732;2024-02-14T07:54:37;99692.59;;;10.66;79.86
8051;BME280;4068;42.158;24.732;2024-02-14T07:57:03;99694.41;;;10.66;80.51
8051;BME280;4068;42.158;24.732;2024-02-14T07:59:29;99691.41;;;10.82;80.13
8051;BME280;4068;42.158;24.732;2024-02-14T08:01:54;99699.25;;;10.83;78.71
8051;BME280;4068;42.158;24.732;2024-02-14T08:04:20;99697.41;;;10.95;78.14
8051;BME280;4068;42.158;24.732;2024-02-14T08:06:46;99706.47;;;10.93;78.34
8051;BME280;4068;42.158;24.732;2024-02-14T08:09:12;99708.88;;;10.96;77.08
8051;BME280;4068;42.158;24.732;2024-02-14T08:11:37;99711.75;;;11.04;77.55
8051;BME280;4068;42.158;24.732;2024-02-14T08:14:03;99708.41;;;11.02;76.79
8051;BME280;4068;42.158;24.732;2024-02-14T08:16:29;99699.22;;;10.95;76.77
8051;BME280;4068;42.158;24.732;2024-02-14T08:18:54;99716.59;;;10.99;77.14
8051;BME280;4068;42.158;24.732;2024-02-14T08:21:28;99689.94;;;10.89;76.37
8051;BME280;4068;42.158;24.732;2024-02-14T08:23:54;99702.22;;;10.90;76.75
8051;BME280;4068;42.158;24.732;2024-02-14T08:26:21;99717.19;;;11.02;76.34
8051;BME280;4068;42.158;24.732;2024-02-14T08:28:48;99705.50;;;10.94;76.75
8051;BME280;4068;42.158;24.732;2024-02-14T08:31:14;99721.53;;;11.15;77.02
8051;BME280;4068;42.158;24.732;2024-02-14T08:33:39;99690.78;;;10.90;76.71
8051;BME280;4068;42.158;24.732;2024-02-14T08:36:05;99709.00;;;10.83;77.81
8051;BME280;4068;42.158;24.732;2024-02-14T08:38:32;99722.13;;;10.96;77.75
8051;BME280;4068;42.158;24.732;2024-02-14T08:40:57;99708.53;;;10.89;78.25
8051;BME280;4068;42.158;24.732;2024-02-14T08:43:23;99726.22;;;11.00;77.94
8051;BME280;4068;42.158;24.732;2024-02-14T08:45:51;99727.81;;;10.91;77.32
8051;BME280;4068;42.158;24.732;2024-02-14T08:48:17;99690.91;;;10.54;78.40
8051;BME280;4068;42.158;24.732;2024-02-14T08:50:44;99735.19;;;10.87;78.16
8051;BME280;4068;42.158;24.732;2024-02-14T08:53:12;99731.66;;;10.87;78.02
8051;BME280;4068;42.158;24.732;2024-02-14T08:55:39;99739.16;;;10.93;77.92
8051;BME280;4068;42.158;24.732;2024-02-14T08:58:05;99737.34;;;10.94;77.95
8051;BME280;4068;42.158;24.732;2024-02-14T09:00:31;99737.34;;;10.94;78.10
8051;BME280;4068;42.158;24.732;2024-02-14T09:03:00;99729.63;;;10.79;77.59
8051;BME280;4068;42.158;24.732;2024-02-14T09:05:25;99733.72;;;10.72;78.37
8051;BME280;4068;42.158;24.732;2024-02-14T09:07:53;99750.97;;;10.66;79.38
8051;BME280;4068;42.158;24.732;2024-02-14T09:10:18;99753.00;;;10.63;80.25
8051;BME280;4068;42.158;24.732;2024-02-14T09:12:44;99756.16;;;10.68;80.72
8051;BME280;4068;42.158;24.732;2024-02-14T09:15:09;99756.16;;;10.79;79.86
8051;BME280;4068;42.158;24.732;2024-02-14T09:17:37;99753.13;;;10.73;81.27
8051;BME280;4068;42.158;24.732;2024-02-14T09:20:04;99759.75;;;10.78;80.75
8051;BME280;4068;42.158;24.732;2024-02-14T09:22:32;99737.84;;;10.76;80.17
8051;BME280;4068;42.158;24.732;2024-02-14T09:24:59;99764.84;;;10.93;79.91
8051;BME280;4068;42.158;24.732;2024-02-14T09:27:24;99762.91;;;10.95;80.59
8051;BME280;4068;42.158;24.732;2024-02-14T09:29:50;99739.88;;;10.84;81.79
8051;BME280;4068;42.158;24.732;2024-02-14T09:32:15;99773.75;;;11.03;82.46
8051;BME280;4068;42.158;24.732;2024-02-14T09:34:41;99770.63;;;11.09;84.77
8051;BME280;4068;42.158;24.732;2024-02-14T09:37:06;99764.84;;;11.04;86.21
8051;BME280;4068;42.158;24.732;2024-02-14T09:39:32;99766.16;;;11.10;85.52
8051;BME280;4068;42.158;24.732;2024-02-14T09:42:08;99762.91;;;11.06;85.33
8051;BME280;4068;42.158;24.732;2024-02-14T09:44:35;99757.50;;;10.96;88.12
8051;BME280;4068;42.158;24.732;2024-02-14T09:47:04;99747.13;;;11.04;88.69
8051;BME280;4068;42.158;24.732;2024-02-14T09:49:31;99724.91;;;11.05;87.71
8051;BME280;4068;42.158;24.732;2024-02-14T09:51:58;99747.44;;;11.22;88.32
8051;BME280;4068;42.158;24.732;2024-02-14T09:54:26;99754.19;;;11.38;86.79
8051;BME280;4068;42.158;24.732;2024-02-14T09:56:52;99760.91;;;11.53;85.31
8051;BME280;4068;42.158;24.732;2024-02-14T09:59:22;99752.91;;;11.65;84.86
8051;BME280;4068;42.158;24.732;2024-02-14T10:01:48;99762.94;;;11.61;85.30
8051;BME280;4068;42.158;24.732;2024-02-14T10:04:16;99751.28;;;11.85;85.74
8051;BME280;4068;42.158;24.732;2024-02-14T10:06:43;99750.63;;;12.04;83.57
8051;BME280;4068;42.158;24.732;2024-02-14T10:09:08;99742.66;;;12.25;82.43
8051;BME280;4068;42.158;24.732;2024-02-14T10:11:35;99746.34;;;12.34;78.83
8051;BME280;4068;42.158;24.732;2024-02-14T10:14:01;99755.91;;;12.36;75.24
8051;BME280;4068;42.158;24.732;2024-02-14T10:16:29;99738.84;;;12.18;77.27
8051;BME280;4068;42.158;24.732;2024-02-14T10:18:54;99752.41;;;12.36;75.33
8051;BME280;4068;42.158;24.732;2024-02-14T10:21:21;99748.19;;;12.33;75.38
8051;BME280;4068;42.158;24.732;2024-02-14T10:23:47;99729.91;;;12.19;77.12
8051;BME280;4068;42.158;24.732;2024-02-14T10:26:17;99754.22;;;12.14;75.12
8051;BME280;4068;42.158;24.732;2024-02-14T10:28:43;99758.66;;;12.14;77.10
8051;BME280;4068;42.158;24.732;2024-02-14T10:31:10;99745.56;;;12.01;71.46
8051;BME280;4068;42.158;24.732;2024-02-14T10:33:36;99755.31;;;12.12;72.56
8051;BME280;4068;42.158;24.732;2024-02-14T10:36:02;99744.41;;;12.15;72.83
8051;BME280;4068;42.158;24.732;2024-02-14T10:38:32;99742.84;;;12.12;70.99
8051;BME280;4068;42.158;24.732;2024-02-14T10:41:02;99749.06;;;12.22;70.63
8051;BME280;4068;42.158;24.732;2024-02-14T10:43:27;99742.19;;;12.41;70.48
8051;BME280;4068;42.158;24.732;2024-02-14T10:45:59;99731.19;;;12.46;69.97
8051;BME280;4068;42.158;24.732;2024-02-14T10:48:28;99725.66;;;12.58;68.98
8051;BME280;4068;42.158;24.732;2024-02-14T10:50:59;99723.97;;;12.57;68.63
8051;BME280;4068;42.158;24.732;2024-02-14T10:53:29;99734.56;;;12.78;70.08
8051;BME280;4068;42.158;24.732;2024-02-14T10:55:59;99727.00;;;13.15;67.37
8051;BME280;4068;42.158;24.732;2024-02-14T10:58:26;99720.56;;;13.17;67.36
8051;BME280;4068;42.158;24.732;2024-02-14T11:00:55;99729.00;;;13.32;68.19
8051;BME280;4068;42.158;24.732;2024-02-14T11:03:22;99730.47;;;13.46;67.37
8051;BME280;4068;42.158;24.732;2024-02-14T11:05:49;99726.13;;;13.45;66.28
8051;BME280;4068;42.158;24.732;2024-02-14T11:08:18;99720.78;;;13.45;65.20
8051;BME280;4068;42.158;24.732;2024-02-14T11:10:54;99712.81;;;13.55;64.86
8051;BME280;4068;42.158;24.732;2024-02-14T11:13:20;99731.16;;;13.38;64.79
8051;BME280;4068;42.158;24.732;2024-02-14T11:15:47;99724.38;;;13.24;64.92
8051;BME280;4068;42.158;24.732;2024-02-14T11:18:25;99730.47;;;13.05;66.00
8051;BME280;4068;42.158;24.732;2024-02-14T11:20:50;99724.38;;;13.24;65.81
8051;BME280;4068;42.158;24.732;2024-02-14T11:23:21;99729.66;;;13.55;64.60
8051;BME280;4068;42.158;24.732;2024-02-14T11:25:47;99695.69;;;13.48;63.76
8051;BME280;4068;42.158;24.732;2024-02-14T11:28:23;99701.31;;;13.84;63.88
8051;BME280;4068;42.158;24.732;2024-02-14T11:30:51;99722.50;;;14.14;60.74
8051;BME280;4068;42.158;24.732;2024-02-14T11:33:23;99720.97;;;13.92;61.14
8051;BME280;4068;42.158;24.732;2024-02-14T11:35:53;99699.34;;;13.76;62.57
8051;BME280;4068;42.158;24.732;2024-02-14T11:38:19;99728.97;;;13.92;61.36
8051;BME280;4068;42.158;24.732;2024-02-14T11:40:46;99724.63;;;13.91;61.30
8051;BME280;4068;42.158;24.732;2024-02-14T11:43:15;99716.34;;;13.94;61.00
8051;BME280;4068;42.158;24.732;2024-02-14T11:45:43;99702.16;;;13.64;60.38
8051;BME280;4068;42.158;24.732;2024-02-14T11:48:12;99725.72;;;13.79;60.30
8051;BME280;4068;42.158;24.732;2024-02-14T11:50:42;99726.00;;;13.56;61.35
8051;BME280;4068;42.158;24.732;2024-02-14T11:53:10;99732.28;;;13.36;60.24
8051;BME280;4068;42.158;24.732;2024-02-14T11:55:37;99714.00;;;13.21;62.92
8051;BME280;4068;42.158;24.732;2024-02-14T11:58:16;99728.38;;;13.09;63.76
8051;BME280;4068;42.158;24.732;2024-02-14T12:00:46;99732.34;;;12.84;62.39
8051;BME280;4068;42.158;24.732;2024-02-14T12:03:16;99723.63;;;12.51;63.73
8051;BME280;4068;42.158;24.732;2024-02-14T12:05:42;99714.38;;;12.45;65.45
8051;BME280;4068;42.158;24.732;2024-02-14T12:08:09;99695.56;;;12.37;66.97
8051;BME280;4068;42.158;24.732;2024-02-14T12:10:35;99700.81;;;12.48;66.11
8051;BME280;4068;42.158;24.732;2024-02-14T12:13:10;99702.50;;;12.49;64.39
8051;BME280;4068;42.158;24.732;2024-02-14T12:15:55;99722.22;;;12.47;64.40
8051;BME280;4068;42.158;24.732;2024-02-14T12:18:20;99716.34;;;12.43;64.71
8051;BME280;4068;42.158;24.732;2024-02-14T12:20:46;99707.53;;;12.21;65.29
8051;BME280;4068;42.158;24.732;2024-02-14T12:23:15;99721.91;;;12.19;66.13
8051;BME280;4068;42.158;24.732;2024-02-14T12:25:46;99721.59;;;12.12;65.72
8051;BME280;4068;42.158;24.732;2024-02-14T12:28:16;99722.19;;;12.16;66.25
8051;BME280;4068;42.158;24.732;2024-02-14T12:30:46;99719.97;;;12.21;66.00
8051;BME280;4068;42.158;24.732;2024-02-14T12:33:16;99725.47;;;12.29;65.42
8051;BME280;4068;42.158;24.732;2024-02-14T12:35:45;99733.38;;;12.40;64.00
8051;BME280;4068;42.158;24.732;2024-02-14T12:38:12;99721.53;;;12.23;64.92
8051;BME280;4068;42.158;24.732;2024-02-14T12:40:39;99703.31;;;12.19;66.11
8051;BME280;4068;42.158;24.732;2024-02-14T12:43:10;99704.28;;;12.18;63.43
8051;BME280;4068;42.158;24.732;2024-02-14T12:45:36;99707.13;;;12.26;63.60
8051;BME280;4068;42.158;24.732;2024-02-14T12:48:02;99728.56;;;12.55;62.46
8051;BME280;4068;42.158;24.732;2024-02-14T12:50:29;99717.22;;;12.53;61.75
8051;BME280;4068;42.158;24.732;2024-02-14T12:52:55;99729.03;;;12.60;61.89
8051;BME280;4068;42.158;24.732;2024-02-14T12:55:21;99706.50;;;12.65;61.19
8051;BME280;4068;42.158;24.732;2024-02-14T12:57:49;99720.47;;;12.88;60.90
8051;BME280;4068;42.158;24.732;2024-02-14T13:00:14;99724.25;;;12.95;60.82
8051;BME280;4068;42.158;24.732;2024-02-14T13:02:40;99729.72;;;12.93;60.94
8051;BME280;4068;42.158;24.732;2024-02-14T13:05:06;99730.22;;;12.77;60.80
8051;BME280;4068;42.158;24.732;2024-02-14T13:07:33;99728.53;;;12.76;60.45
8051;BME280;4068;42.158;24.732;2024-02-14T13:09:59;99742.50;;;12.69;60.77